Al Qutayfah, Syria
Current Conditions -  °F | °C
As of 8:00 PM on Thursday 30 Oct 2014 (Local Time) from OSDI Reporting Station
Scattered Clouds Scattered Clouds  
Wind Chill: 66°   Ceiling: Unl
Heat Index: 66°   Visibility: 6mi
Dew Point: 45°   Wind: 9mph
Humidity: 46%   Direction: 210°SSW
Pressure: 29.94"   Gusts: NA
Location:  33.75°N, 36.6°E
Report Text: OSDI 301700Z 21008KT 9999 SCT030 19/07 Q1014
Loading
Personal Weather Stations






























Interactive Weather Map
Tropical Storm Tracking
New forecast layout! Learn more

10-Day Weather Forecast

Advertisements
Track Severe Weather on mobile